Time;durP1;ratioP1;P1;durP2;ratioP2;P2;SDS_P1;SDS_P2;PMS_P1;PMS_P2;Temp;Humidity;BMP_temperature;BMP_pressure;BME280_temperature;BME280_humidity;BME280_pressure;Samples;Min_cycle;Max_cycle;Signal;HPM_P1;HPM_P2
2021/04/09 00:00:50;;;;;;;24.83;14.20;;;5.90;99.90;;;;;;5082946;28;20023;-74
2021/04/09 00:03:16;;;;;;;25.35;14.00;;;5.90;99.90;;;;;;5076890;28;20070;-74
2021/04/09 00:05:42;;;;;;;18.45;12.70;;;6.00;99.90;;;;;;5068844;28;20032;-74
2021/04/09 00:08:07;;;;;;;22.20;13.02;;;6.00;99.90;;;;;;5074938;28;20020;-75
2021/04/09 00:10:34;;;;;;;25.48;13.93;;;5.90;99.90;;;;;;5071641;28;20031;-74
2021/04/09 00:13:00;;;;;;;21.70;12.52;;;5.90;99.90;;;;;;5069856;28;20021;-76
2021/04/09 00:15:25;;;;;;;31.80;13.65;;;5.90;99.90;;;;;;5074293;28;20054;-75
2021/04/09 00:17:52;;;;;;;23.77;12.60;;;5.90;99.90;;;;;;5072131;28;20012;-77
2021/04/09 00:20:21;;;;;;;21.35;12.02;;;5.90;99.90;;;;;;5085607;28;20016;-75
2021/04/09 00:22:47;;;;;;;25.63;13.43;;;6.10;99.90;;;;;;5076522;28;20020;-76
2021/04/09 00:25:14;;;;;;;31.27;13.60;;;6.10;99.90;;;;;;5071880;28;20032;-74
2021/04/09 00:27:41;;;;;;;25.83;13.32;;;6.10;99.90;;;;;;5082172;28;20004;-74
2021/04/09 00:30:09;;;;;;;18.40;12.43;;;6.00;99.90;;;;;;5083388;28;20062;-75
2021/04/09 00:32:35;;;;;;;25.90;13.68;;;6.00;99.90;;;;;;5084370;28;20012;-74
2021/04/09 00:35:02;;;;;;;22.05;13.52;;;6.10;99.90;;;;;;5070901;28;20024;-75
2021/04/09 00:37:27;;;;;;;22.63;12.93;;;6.10;99.90;;;;;;5070220;28;20019;-74
2021/04/09 00:39:53;;;;;;;24.27;14.50;;;6.10;99.90;;;;;;5070962;28;20025;-74
2021/04/09 00:42:21;;;;;;;22.83;12.93;;;6.00;99.90;;;;;;5068221;28;20024;-74
2021/04/09 00:44:47;;;;;;;25.33;14.15;;;6.00;99.90;;;;;;5064969;28;20020;-76
2021/04/09 00:47:13;;;;;;;23.90;14.18;;;6.00;99.90;;;;;;5066178;28;20082;-75
2021/04/09 00:49:40;;;;;;;22.15;12.93;;;5.90;99.90;;;;;;5068600;28;20024;-74
2021/04/09 00:52:07;;;;;;;28.17;12.93;;;5.90;99.90;;;;;;5068328;28;20017;-74
2021/04/09 00:54:33;;;;;;;18.60;12.32;;;5.90;99.90;;;;;;5054091;28;20028;-75
2021/04/09 00:57:01;;;;;;;28.70;14.02;;;6.00;99.90;;;;;;5067694;28;20033;-74
2021/04/09 00:59:28;;;;;;;20.52;13.30;;;6.00;99.90;;;;;;5069949;28;20071;-75
2021/04/09 01:01:53;;;;;;;23.17;12.95;;;5.90;99.90;;;;;;5073364;28;20042;-75
2021/04/09 01:04:20;;;;;;;26.70;14.00;;;5.90;99.90;;;;;;5079327;28;20040;-75
2021/04/09 01:06:46;;;;;;;26.85;13.27;;;5.90;99.90;;;;;;5068995;28;20036;-75
2021/04/09 01:09:13;;;;;;;27.50;13.30;;;5.90;99.90;;;;;;5068517;28;20070;-74
2021/04/09 01:11:38;;;;;;;22.40;12.95;;;5.90;99.90;;;;;;5069447;28;20025;-75
2021/04/09 01:14:04;;;;;;;29.05;13.55;;;5.90;99.90;;;;;;5066803;28;20031;-75
2021/04/09 01:16:53;;;;;;;20.63;12.73;;;5.90;99.90;;;;;;5068384;28;20020;-75
2021/04/09 01:20:08;;;;;;;21.60;12.82;;;5.90;99.90;;;;;;5069297;28;20012;-76
2021/04/09 01:22:44;;;;;;;24.00;12.90;;;5.90;99.90;;;;;;5055709;28;20495;-76
2021/04/09 01:25:30;;;;;;;24.98;13.38;;;5.90;99.90;;;;;;5061394;28;20025;-75
2021/04/09 01:28:10;;;;;;;19.58;11.98;;;5.90;99.90;;;;;;5048327;28;20038;-75
2021/04/09 01:30:43;;;;;;;25.40;12.80;;;5.80;99.90;;;;;;5066348;28;20025;-75
2021/04/09 01:33:09;;;;;;;21.15;12.50;;;5.80;99.90;;;;;;5074464;28;20016;-74
2021/04/09 01:35:41;;;;;;;23.23;12.20;;;5.80;99.90;;;;;;5061927;28;20075;-74
2021/04/09 01:38:08;;;;;;;23.25;12.80;;;5.80;99.90;;;;;;5057307;28;20013;-77
2021/04/09 01:40:40;;;;;;;22.02;12.63;;;5.80;99.90;;;;;;5055333;28;20090;-74
2021/04/09 01:43:11;;;;;;;20.70;12.57;;;5.80;99.90;;;;;;5054168;28;20015;-74
2021/04/09 01:45:36;;;;;;;19.25;11.95;;;5.90;99.90;;;;;;5069590;28;20036;-74
2021/04/09 01:48:04;;;;;;;24.23;12.77;;;5.90;99.90;;;;;;5065815;28;20028;-74
2021/04/09 01:50:32;;;;;;;24.80;11.85;;;5.90;99.90;;;;;;5067732;28;20016;-73
2021/04/09 01:52:59;;;;;;;27.85;12.68;;;5.90;99.90;;;;;;5066564;28;20437;-75
2021/04/09 01:55:28;;;;;;;23.08;12.45;;;5.90;99.90;;;;;;5071608;28;20032;-76
2021/04/09 01:57:56;;;;;;;26.50;13.30;;;5.90;99.90;;;;;;5079514;28;20020;-74
2021/04/09 02:00:24;;;;;;;30.80;13.23;;;5.90;99.90;;;;;;5073986;28;20111;-74
2021/04/09 02:02:51;;;;;;;19.63;12.32;;;5.90;99.90;;;;;;5074221;28;20523;-75
2021/04/09 02:05:25;;;;;;;26.58;12.07;;;5.80;99.90;;;;;;5071342;28;20012;-74
2021/04/09 02:07:52;;;;;;;24.02;13.40;;;5.80;99.90;;;;;;5071164;28;20158;-75
2021/04/09 02:10:21;;;;;;;22.50;11.65;;;5.80;99.90;;;;;;5071595;28;20028;-75
2021/04/09 02:12:47;;;;;;;21.92;12.45;;;5.80;99.90;;;;;;5070767;28;20111;-75
2021/04/09 02:15:17;;;;;;;23.90;12.93;;;5.80;99.90;;;;;;5071098;28;20032;-73
2021/04/09 02:17:43;;;;;;;25.60;12.77;;;5.90;99.90;;;;;;5070478;28;20019;-74
2021/04/09 02:20:15;;;;;;;20.63;12.00;;;5.90;99.90;;;;;;5071684;28;20017;-76
2021/04/09 02:22:42;;;;;;;21.33;11.98;;;5.80;99.90;;;;;;5070681;28;20024;-74
2021/04/09 02:25:10;;;;;;;21.20;12.23;;;5.80;99.90;;;;;;5071679;28;20055;-75
2021/04/09 02:27:38;;;;;;;19.08;11.75;;;5.90;99.90;;;;;;5071465;28;20052;-75
2021/04/09 02:30:08;;;;;;;24.02;13.50;;;5.80;99.90;;;;;;5071036;28;20044;-75
2021/04/09 02:32:34;;;;;;;20.65;12.13;;;5.90;99.90;;;;;;5075308;28;20032;-76
2021/04/09 02:35:00;;;;;;;23.90;12.60;;;5.80;99.90;;;;;;5072496;28;20357;-73
2021/04/09 02:37:26;;;;;;;21.40;11.60;;;5.90;99.90;;;;;;5074047;28;20025;-75
2021/04/09 02:39:57;;;;;;;20.25;10.75;;;5.90;99.90;;;;;;5075938;28;20039;-76
2021/04/09 02:42:23;;;;;;;24.42;10.43;;;5.90;99.90;;;;;;5070714;28;20020;-74
2021/04/09 02:44:49;;;;;;;19.27;10.82;;;5.90;99.90;;;;;;5071212;28;20020;-74
2021/04/09 02:47:22;;;;;;;14.43;9.85;;;5.90;99.90;;;;;;5070389;28;20036;-73
2021/04/09 02:50:02;;;;;;;20.23;9.43;;;6.00;99.90;;;;;;5059034;28;20016;-74
2021/04/09 02:52:40;;;;;;;16.23;9.77;;;6.00;99.90;;;;;;5069412;28;20128;-73
2021/04/09 02:55:15;;;;;;;12.55;8.82;;;6.00;99.90;;;;;;5071680;28;20020;-74
2021/04/09 02:57:45;;;;;;;17.85;10.45;;;6.00;99.90;;;;;;5071230;28;20048;-75
2021/04/09 03:00:11;;;;;;;15.98;10.10;;;6.10;99.90;;;;;;5071701;28;20499;-75
2021/04/09 03:02:39;;;;;;;14.73;9.73;;;6.10;99.90;;;;;;5071682;28;20032;-74
2021/04/09 03:05:07;;;;;;;18.85;9.63;;;6.10;99.90;;;;;;5069377;28;20036;-74
2021/04/09 03:07:36;;;;;;;17.70;9.30;;;6.10;99.90;;;;;;5070905;28;20113;-75
2021/04/09 03:10:05;;;;;;;16.35;9.95;;;6.10;99.90;;;;;;5069916;28;20024;-76
2021/04/09 03:12:31;;;;;;;20.92;10.18;;;6.10;99.90;;;;;;5056221;28;20060;-75
2021/04/09 03:14:58;;;;;;;19.02;9.65;;;6.10;99.90;;;;;;5067212;28;20071;-74
2021/04/09 03:17:31;;;;;;;18.27;10.10;;;6.10;99.90;;;;;;5067160;28;20021;-76
2021/04/09 03:19:56;;;;;;;19.95;10.43;;;6.10;99.90;;;;;;5069457;28;20063;-75
2021/04/09 03:22:22;;;;;;;17.70;9.95;;;6.10;99.90;;;;;;5069226;28;20486;-75
2021/04/09 03:24:47;;;;;;;24.02;11.57;;;6.00;99.90;;;;;;5071139;28;20111;-76
2021/04/09 03:27:16;;;;;;;21.10;10.82;;;6.00;99.90;;;;;;5069625;28;20031;-75
2021/04/09 03:29:43;;;;;;;18.42;10.48;;;6.00;99.90;;;;;;5062883;28;20111;-75
2021/04/09 03:32:11;;;;;;;22.95;10.27;;;6.00;99.90;;;;;;5070922;28;20020;-75
2021/04/09 03:34:40;;;;;;;18.77;9.52;;;6.00;99.90;;;;;;5070586;28;20310;-76
2021/04/09 03:37:06;;;;;;;20.38;10.18;;;6.00;99.90;;;;;;5066845;28;20029;-74
2021/04/09 03:39:32;;;;;;;21.35;11.50;;;6.00;99.90;;;;;;5069963;28;20016;-75
2021/04/09 03:41:58;;;;;;;17.77;10.05;;;6.10;99.90;;;;;;5071877;28;20031;-75
2021/04/09 03:44:24;;;;;;;24.92;11.18;;;6.00;99.90;;;;;;5070370;28;20036;-75
2021/04/09 03:46:49;;;;;;;20.15;10.95;;;5.90;99.90;;;;;;5070075;28;20027;-74
2021/04/09 03:49:15;;;;;;;18.70;9.82;;;5.90;99.90;;;;;;5071285;28;20032;-75
2021/04/09 03:51:41;;;;;;;16.45;10.05;;;5.90;99.90;;;;;;5071812;28;20443;-75
2021/04/09 03:54:07;;;;;;;20.52;10.27;;;5.90;99.90;;;;;;5069336;28;20055;-76
2021/04/09 03:56:35;;;;;;;16.10;9.95;;;5.80;99.90;;;;;;5066901;28;20017;-74
2021/04/09 03:59:01;;;;;;;17.73;11.25;;;5.80;99.90;;;;;;5075779;28;20020;-77
2021/04/09 04:01:35;;;;;;;21.30;11.27;;;5.70;99.90;;;;;;5084347;28;20066;-75
2021/04/09 04:04:01;;;;;;;22.23;11.30;;;5.70;99.90;;;;;;5075363;28;20238;-76
2021/04/09 04:06:27;;;;;;;17.85;11.05;;;5.70;99.90;;;;;;5069849;28;20078;-76
2021/04/09 04:08:52;;;;;;;26.48;10.93;;;5.60;99.90;;;;;;5066741;28;20078;-74
2021/04/09 04:11:18;;;;;;;15.00;10.02;;;5.60;99.90;;;;;;5069429;28;20079;-74
2021/04/09 04:13:44;;;;;;;20.17;10.35;;;5.60;99.90;;;;;;5069305;28;20657;-74
2021/04/09 04:16:10;;;;;;;14.05;10.27;;;5.60;99.90;;;;;;5077343;28;20028;-74
2021/04/09 04:18:35;;;;;;;16.98;10.18;;;5.60;99.90;;;;;;5082514;28;20040;-75
2021/04/09 04:21:02;;;;;;;19.95;10.60;;;5.60;99.90;;;;;;5076778;28;20051;-73
2021/04/09 04:23:28;;;;;;;20.58;10.95;;;5.60;99.90;;;;;;5066036;28;20081;-73
2021/04/09 04:25:54;;;;;;;21.98;11.82;;;5.60;99.90;;;;;;5067360;28;20117;-75
2021/04/09 04:28:22;;;;;;;22.20;10.65;;;5.60;99.90;;;;;;5084087;28;20028;-75
2021/04/09 04:30:51;;;;;;;19.33;10.95;;;5.60;99.90;;;;;;5084594;28;20043;-75
2021/04/09 04:33:20;;;;;;;18.17;11.05;;;5.50;99.90;;;;;;5067552;28;20024;-73
2021/04/09 04:35:47;;;;;;;29.73;11.57;;;5.50;99.90;;;;;;5068367;28;20542;-74
2021/04/09 04:38:13;;;;;;;24.52;12.00;;;5.50;99.90;;;;;;5071932;28;20020;-77
2021/04/09 04:40:39;;;;;;;22.00;11.60;;;5.50;99.90;;;;;;5061513;28;20054;-77
2021/04/09 04:43:05;;;;;;;25.20;11.25;;;5.50;99.90;;;;;;5070265;28;20021;-74
2021/04/09 04:45:31;;;;;;;17.73;10.50;;;5.50;99.90;;;;;;5070007;28;20032;-76
2021/04/09 04:47:57;;;;;;;23.67;11.23;;;5.50;99.90;;;;;;5062586;28;20048;-76
2021/04/09 04:50:23;;;;;;;21.27;11.00;;;5.50;99.90;;;;;;5069608;28;20477;-75
2021/04/09 04:52:49;;;;;;;19.02;11.05;;;5.50;99.90;;;;;;5068949;28;20036;-75
2021/04/09 04:55:15;;;;;;;17.23;10.30;;;5.50;99.90;;;;;;5066912;28;20040;-74
2021/04/09 04:57:41;;;;;;;17.25;10.98;;;5.50;99.90;;;;;;5068398;28;20021;-74
2021/04/09 05:00:07;;;;;;;29.80;10.80;;;5.50;99.90;;;;;;5067603;28;20574;-73
2021/04/09 05:02:34;;;;;;;23.95;10.18;;;5.50;99.90;;;;;;5068134;28;20043;-73
2021/04/09 05:05:00;;;;;;;21.40;10.63;;;5.40;99.90;;;;;;5065760;28;20673;-73
2021/04/09 05:07:26;;;;;;;24.02;10.57;;;5.50;99.90;;;;;;5072143;28;20054;-74
2021/04/09 05:09:51;;;;;;;23.33;11.50;;;5.40;99.90;;;;;;5075877;28;20103;-74
2021/04/09 05:12:17;;;;;;;20.05;9.63;;;5.40;99.90;;;;;;5068668;28;20125;-74
2021/04/09 05:14:44;;;;;;;21.75;11.63;;;5.40;99.90;;;;;;5070929;28;20024;-77
2021/04/09 05:17:09;;;;;;;18.95;10.23;;;5.40;99.90;;;;;;5071251;28;20028;-75
2021/04/09 05:19:35;;;;;;;19.00;10.23;;;5.40;99.90;;;;;;5069376;28;20016;-73
2021/04/09 05:22:01;;;;;;;18.38;10.40;;;5.50;99.90;;;;;;5064419;28;20029;-73
2021/04/09 05:24:27;;;;;;;18.42;11.07;;;5.50;99.90;;;;;;5063622;28;20507;-74
2021/04/09 05:26:53;;;;;;;18.27;10.65;;;5.50;99.90;;;;;;5069091;28;20111;-72
2021/04/09 05:29:18;;;;;;;21.27;10.63;;;5.50;99.90;;;;;;5068685;28;20028;-73
2021/04/09 05:31:44;;;;;;;27.08;10.18;;;5.60;99.90;;;;;;5070889;28;20028;-72
2021/04/09 05:34:10;;;;;;;16.88;10.68;;;5.60;99.90;;;;;;5073515;28;20121;-75
2021/04/09 05:36:36;;;;;;;21.23;10.23;;;5.50;99.90;;;;;;5078045;28;20418;-75
2021/04/09 05:39:01;;;;;;;17.40;10.40;;;5.60;99.90;;;;;;5084612;28;20013;-74
2021/04/09 05:41:27;;;;;;;21.83;9.98;;;5.60;99.90;;;;;;5086385;28;20033;-75
2021/04/09 05:43:54;;;;;;;19.63;10.77;;;5.70;99.90;;;;;;5079022;28;20021;-74
2021/04/09 05:46:20;;;;;;;18.52;9.98;;;5.70;99.90;;;;;;5072825;28;20111;-75
2021/04/09 05:48:46;;;;;;;20.85;10.18;;;5.70;99.90;;;;;;5073153;28;20012;-73
2021/04/09 05:51:11;;;;;;;17.73;9.10;;;5.70;99.90;;;;;;5072133;28;20031;-74
2021/04/09 05:53:38;;;;;;;21.70;10.60;;;5.70;99.90;;;;;;5074058;28;20039;-74
2021/04/09 05:56:04;;;;;;;19.25;9.63;;;5.70;99.90;;;;;;5069574;28;20024;-74
2021/04/09 05:58:30;;;;;;;16.17;9.70;;;5.80;99.90;;;;;;5074739;28;20579;-74
2021/04/09 06:00:55;;;;;;;19.85;11.02;;;5.80;99.90;;;;;;5066317;28;20025;-74
2021/04/09 06:03:21;;;;;;;20.08;10.43;;;5.80;99.90;;;;;;5064150;28;20021;-73
2021/04/09 06:05:47;;;;;;;20.70;9.98;;;5.90;99.90;;;;;;5072201;28;20455;-73
2021/04/09 06:08:12;;;;;;;15.02;9.43;;;5.90;99.90;;;;;;5082128;28;20056;-74
2021/04/09 06:10:45;;;;;;;22.35;10.20;;;5.90;99.90;;;;;;5093393;28;20024;-75
2021/04/09 06:13:17;;;;;;;;;;;5.90;99.90;;;;;;5094786;28;20024;-74
2021/04/09 06:15:44;;;;;;;19.40;9.80;;;6.00;99.90;;;;;;5081076;28;19999;-73
2021/04/09 06:18:11;;;;;;;18.40;9.30;;;5.90;99.90;;;;;;5079783;28;20025;-73
2021/04/09 06:20:37;;;;;;;17.27;10.05;;;6.00;99.90;;;;;;5082550;28;20017;-72
2021/04/09 06:23:03;;;;;;;12.70;8.82;;;6.00;99.90;;;;;;5080604;28;20053;-72
2021/04/09 06:25:29;;;;;;;19.58;10.25;;;6.10;99.90;;;;;;5076280;28;20036;-75
2021/04/09 06:27:54;;;;;;;17.67;9.15;;;6.10;99.90;;;;;;5083546;28;20138;-73
2021/04/09 06:30:20;;;;;;;18.38;9.00;;;6.10;99.90;;;;;;5086678;28;20083;-71
2021/04/09 06:32:46;;;;;;;18.48;9.18;;;6.20;99.90;;;;;;5073501;28;20546;-74
2021/04/09 06:35:13;;;;;;;19.70;9.48;;;6.20;99.90;;;;;;5083706;28;20017;-73
2021/04/09 06:37:41;;;;;;;19.63;9.82;;;6.20;99.90;;;;;;5090019;28;20017;-75
2021/04/09 06:40:10;;;;;;;15.30;8.48;;;6.30;99.90;;;;;;5090365;28;20130;-73
2021/04/09 06:42:36;;;;;;;15.18;9.13;;;6.40;99.90;;;;;;5088589;28;20055;-72
2021/04/09 06:45:03;;;;;;;17.63;9.07;;;6.40;99.90;;;;;;5088128;28;20020;-72
2021/04/09 06:47:32;;;;;;;20.08;9.60;;;6.50;99.90;;;;;;5087623;28;20052;-73
2021/04/09 06:49:58;;;;;;;12.85;8.65;;;6.50;99.90;;;;;;5076886;28;20020;-73
2021/04/09 06:52:26;;;;;;;17.42;9.18;;;6.60;99.90;;;;;;5076501;28;20040;-72
2021/04/09 06:54:52;;;;;;;25.77;9.77;;;6.60;99.90;;;;;;5074720;28;20675;-73
2021/04/09 06:57:21;;;;;;;17.75;9.00;;;6.60;99.90;;;;;;5056393;28;20023;-72
2021/04/09 06:59:51;;;;;;;19.27;9.55;;;6.70;99.90;;;;;;5074420;28;20031;-74
2021/04/09 07:02:18;;;;;;;15.05;8.85;;;6.80;99.90;;;;;;5074013;28;20023;-72
2021/04/09 07:04:47;;;;;;;14.15;9.15;;;6.80;99.90;;;;;;5070268;28;20017;-76
2021/04/09 07:07:15;;;;;;;15.63;8.65;;;6.90;99.90;;;;;;5070657;28;20025;-74
2021/04/09 07:09:44;;;;;;;19.58;9.43;;;6.90;99.90;;;;;;5074176;28;20035;-74
2021/04/09 07:12:24;;;;;;;14.25;8.23;;;7.00;99.90;;;;;;5072257;28;20484;-73
2021/04/09 07:14:54;;;;;;;12.68;8.15;;;7.10;99.90;;;;;;5072205;28;20028;-73
2021/04/09 07:17:24;;;;;;;29.55;9.00;;;7.20;99.90;;;;;;5072783;28;20016;-73
2021/04/09 07:19:50;;;;;;;17.55;8.70;;;7.20;99.90;;;;;;5073222;28;20031;-72
2021/04/09 07:22:27;;;;;;;16.23;9.32;;;7.20;99.90;;;;;;5074494;28;20020;-75
2021/04/09 07:25:11;;;;;;;14.68;8.43;;;7.30;99.90;;;;;;5081427;28;20396;-74
2021/04/09 07:27:38;;;;;;;17.20;8.88;;;7.30;99.90;;;;;;5075151;28;20036;-76
2021/04/09 07:30:09;;;;;;;12.18;7.88;;;7.30;99.90;;;;;;5077030;28;20251;-74
2021/04/09 07:32:35;;;;;;;15.90;8.10;;;7.40;99.90;;;;;;5076233;28;20021;-76
2021/04/09 07:35:03;;;;;;;19.10;8.70;;;7.40;99.90;;;;;;5077313;28;20035;-75
2021/04/09 07:37:52;;;;;;;14.10;8.38;;;7.40;99.90;;;;;;5073242;28;20020;-75
2021/04/09 07:40:23;;;;;;;19.65;8.10;;;7.50;99.90;;;;;;5070612;28;20044;-75
2021/04/09 07:42:50;;;;;;;15.98;8.77;;;7.50;99.90;;;;;;5075272;28;20016;-74
2021/04/09 07:45:20;;;;;;;19.90;8.95;;;7.60;99.90;;;;;;5069549;28;20013;-74
2021/04/09 07:47:58;;;;;;;17.05;8.43;;;7.60;99.90;;;;;;5077572;28;20123;-75
2021/04/09 07:50:46;;;;;;;25.17;8.82;;;7.60;99.90;;;;;;5069819;28;20051;-74
2021/04/09 07:53:17;;;;;;;19.67;9.10;;;7.60;99.90;;;;;;5085292;28;20092;-74
2021/04/09 07:55:43;;;;;;;18.08;8.80;;;7.80;99.90;;;;;;5086139;28;20009;-76
2021/04/09 07:58:15;;;;;;;17.65;9.02;;;7.90;99.90;;;;;;5085821;28;20122;-75
2021/04/09 08:00:41;;;;;;;;;;;7.90;99.90;;;;;;5083564;28;20035;-73
2021/04/09 08:03:07;;;;;;;15.68;8.88;;;7.80;99.90;;;;;;5077066;28;19987;-73
2021/04/09 08:05:33;;;;;;;19.73;9.13;;;7.80;99.90;;;;;;5073208;28;20031;-75
2021/04/09 08:07:59;;;;;;;15.50;8.63;;;7.90;99.90;;;;;;5073913;28;20034;-74
2021/04/09 08:10:33;;;;;;;17.23;8.32;;;8.00;99.90;;;;;;5073196;28;20026;-73
2021/04/09 08:13:01;;;;;;;14.35;9.05;;;8.20;99.90;;;;;;5082227;28;20006;-75
2021/04/09 08:15:30;;;;;;;21.75;9.35;;;8.20;99.90;;;;;;5085427;28;20290;-73
2021/04/09 08:18:02;;;;;;;16.67;9.35;;;8.30;99.90;;;;;;5084634;28;20020;-75
2021/04/09 08:20:30;;;;;;;24.58;8.65;;;8.50;99.90;;;;;;5075271;28;20345;-75
2021/04/09 08:23:05;;;;;;;15.80;9.43;;;8.60;99.90;;;;;;5089215;28;20093;-74
2021/04/09 08:25:31;;;;;;;16.30;8.48;;;8.60;99.90;;;;;;5091978;28;20080;-74
2021/04/09 08:27:59;;;;;;;19.35;8.73;;;8.60;99.90;;;;;;5080953;28;20395;-75
2021/04/09 08:30:28;;;;;;;21.48;8.63;;;8.70;99.90;;;;;;5054837;28;20020;-74
2021/04/09 08:32:55;;;;;;;13.52;7.68;;;8.70;99.90;;;;;;5065922;28;20037;-74
2021/04/09 08:35:21;;;;;;;16.13;8.98;;;8.80;99.90;;;;;;5067312;28;20032;-74
2021/04/09 08:37:48;;;;;;;19.25;7.65;;;8.90;99.90;;;;;;5070728;28;20432;-74
2021/04/09 08:40:21;;;;;;;19.70;7.75;;;9.00;99.90;;;;;;5078893;28;20017;-73
2021/04/09 08:42:51;;;;;;;19.10;8.52;;;9.10;99.90;;;;;;5091017;28;20016;-74
2021/04/09 08:45:19;;;;;;;14.40;7.72;;;9.30;99.90;;;;;;5084502;28;20042;-74
2021/04/09 08:47:46;;;;;;;15.00;7.32;;;9.50;99.90;;;;;;5073761;28;20179;-74
2021/04/09 08:50:13;;;;;;;11.68;7.53;;;9.60;99.90;;;;;;5070145;28;20207;-72
2021/04/09 08:52:41;;;;;;;14.85;7.55;;;9.80;99.90;;;;;;5071109;28;20036;-74
2021/04/09 08:55:08;;;;;;;16.23;7.35;;;10.10;99.90;;;;;;5068128;28;20479;-73
2021/04/09 08:57:36;;;;;;;12.88;6.93;;;10.20;99.90;;;;;;5071290;28;20035;-73
2021/04/09 09:00:06;;;;;;;11.27;7.25;;;10.20;99.90;;;;;;5055393;28;20106;-74
2021/04/09 09:02:39;;;;;;;12.68;6.70;;;10.50;99.90;;;;;;5056150;28;20025;-74
2021/04/09 09:05:11;;;;;;;13.80;6.55;;;10.60;99.90;;;;;;5069251;28;20028;-74
2021/04/09 09:07:49;;;;;;;12.38;7.35;;;10.50;99.90;;;;;;5059457;28;20031;-74
2021/04/09 09:10:31;;;;;;;11.32;6.60;;;10.50;99.90;;;;;;5071996;28;20028;-75
2021/04/09 09:13:03;;;;;;;12.80;6.30;;;10.50;99.90;;;;;;5072523;28;20028;-74
2021/04/09 09:15:44;;;;;;;15.13;6.75;;;10.80;99.90;;;;;;5070423;28;20456;-74
2021/04/09 09:18:19;;;;;;;9.88;6.15;;;11.50;99.90;;;;;;5070388;28;20024;-73
2021/04/09 09:21:01;;;;;;;13.38;7.07;;;11.40;99.90;;;;;;5070521;28;20062;-74
2021/04/09 09:23:41;;;;;;;10.82;6.40;;;11.00;99.90;;;;;;5071459;28;20017;-73
2021/04/09 09:26:32;;;;;;;10.70;6.00;;;11.10;99.90;;;;;;5068478;28;20109;-72
2021/04/09 09:29:18;;;;;;;12.00;6.10;;;11.20;99.90;;;;;;5056764;28;20124;-74
2021/04/09 09:32:06;;;;;;;8.57;5.43;;;11.50;99.90;;;;;;5053716;28;20103;-76
2021/04/09 09:34:35;;;;;;;15.43;7.70;;;11.10;99.90;;;;;;5069403;28;20025;-75
2021/04/09 09:37:19;;;;;;;13.55;6.20;;;11.00;99.90;;;;;;5068979;28;20108;-74
2021/04/09 09:39:52;;;;;;;10.40;5.70;;;11.40;99.90;;;;;;5065302;28;20017;-74
2021/04/09 09:42:21;;;;;;;8.63;5.57;;;11.70;99.90;;;;;;5061823;28;20021;-73
2021/04/09 09:44:48;;;;;;;13.27;6.20;;;12.00;99.90;;;;;;5068491;28;20044;-73
2021/04/09 09:47:14;;;;;;;14.27;5.93;;;12.00;99.90;;;;;;5068711;28;20021;-74
2021/04/09 09:52:45;;;;;;;10.98;6.07;;;11.80;99.90;;;;;;5059576;28;20109;-74
2021/04/09 09:55:37;;;;;;;;;;;11.80;99.90;;;;;;5067115;28;20308;-73
2021/04/09 09:58:10;;;;;;;15.77;6.03;;;11.70;99.90;;;;;;5067583;28;19904;-74
2021/04/09 10:00:59;;;;;;;12.85;6.03;;;12.10;99.90;;;;;;5068819;28;20035;-74
2021/04/09 10:03:29;;;;;;;10.48;6.00;;;12.10;99.90;;;;;;5069838;28;20036;-73
2021/04/09 10:06:00;;;;;;;13.50;6.53;;;11.90;99.90;;;;;;5056304;28;20051;-74
2021/04/09 10:08:27;;;;;;;8.70;5.28;;;12.00;99.90;;;;;;5069114;28;20215;-74
2021/04/09 10:10:54;;;;;;;13.23;5.88;;;12.20;99.90;;;;;;5068001;28;20098;-74
2021/04/09 10:13:35;;;;;;;9.27;5.68;;;12.10;99.90;;;;;;5069754;28;20027;-74
2021/04/09 10:16:26;;;;;;;9.00;5.25;;;12.20;99.90;;;;;;5069938;28;20021;-75
2021/04/09 10:18:57;;;;;;;9.82;5.38;;;12.20;99.90;;;;;;5067881;28;20093;-74
2021/04/09 10:21:30;;;;;;;12.50;5.15;;;12.30;99.90;;;;;;5073111;28;20119;-74
2021/04/09 10:24:04;;;;;;;7.15;5.10;;;12.30;99.90;;;;;;5072620;28;20024;-74
2021/04/09 10:26:31;;;;;;;12.35;5.72;;;12.30;99.90;;;;;;5072561;28;20044;-74
2021/04/09 10:28:57;;;;;;;12.15;5.82;;;12.10;99.90;;;;;;5073053;28;20024;-74
2021/04/09 10:31:23;;;;;;;17.77;6.05;;;12.20;99.90;;;;;;5073264;28;20031;-72
2021/04/09 10:33:56;;;;;;;9.40;6.00;;;12.00;99.90;;;;;;5072645;28;20025;-74
2021/04/09 10:36:25;;;;;;;11.75;6.35;;;12.30;99.90;;;;;;5072148;28;20033;-76
2021/04/09 10:38:55;;;;;;;8.57;5.70;;;12.40;99.90;;;;;;5073288;28;20459;-74
2021/04/09 10:41:32;;;;;;;8.27;5.55;;;12.40;99.90;;;;;;5073921;28;20025;-72
2021/04/09 10:44:06;;;;;;;9.63;5.10;;;12.70;99.90;;;;;;5068113;28;20027;-74
2021/04/09 10:46:34;;;;;;;13.73;5.53;;;12.70;99.90;;;;;;5073972;28;20100;-78
2021/04/09 10:49:11;;;;;;;11.30;5.45;;;12.60;99.90;;;;;;5072622;28;20111;-76
2021/04/09 10:51:40;;;;;;;9.93;5.07;;;12.20;99.90;;;;;;5073748;28;20197;-76
2021/04/09 10:54:26;;;;;;;9.57;5.68;;;12.30;99.90;;;;;;5075113;28;20474;-73
2021/04/09 10:56:56;;;;;;;7.68;4.50;;;12.60;99.90;;;;;;5073962;28;20496;-73
2021/04/09 10:59:32;;;;;;;7.50;4.72;;;12.50;99.90;;;;;;5063227;28;20055;-76
2021/04/09 11:01:59;;;;;;;6.88;4.75;;;12.20;99.90;;;;;;5070437;28;20020;-75
2021/04/09 11:04:29;;;;;;;10.32;4.32;;;12.60;99.90;;;;;;5063565;28;20025;-76
2021/04/09 11:06:58;;;;;;;12.40;4.47;;;12.90;99.50;;;;;;5074416;28;20142;-75
2021/04/09 11:09:37;;;;;;;6.15;4.03;;;13.10;98.00;;;;;;5077881;28;20549;-74
2021/04/09 11:12:27;;;;;;;5.82;3.72;;;13.30;98.40;;;;;;5072538;28;20028;-75
2021/04/09 11:15:07;;;;;;;4.88;3.38;;;13.70;98.30;;;;;;5063741;28;20036;-75
2021/04/09 11:17:33;;;;;;;9.50;5.13;;;13.60;97.40;;;;;;5069415;28;20092;-75
2021/04/09 11:20:01;;;;;;;7.13;3.85;;;13.40;98.00;;;;;;5071876;28;20174;-74
2021/04/09 11:22:30;;;;;;;9.45;4.57;;;13.30;97.90;;;;;;5072240;28;20172;-76
2021/04/09 11:25:05;;;;;;;10.98;4.95;;;13.20;97.80;;;;;;5073333;28;20016;-74
2021/04/09 11:27:33;;;;;;;14.52;5.75;;;12.70;98.70;;;;;;5073543;28;20032;-73
2021/04/09 11:30:19;;;;;;;11.75;6.22;;;12.20;99.90;;;;;;5073103;28;20021;-75
2021/04/09 11:32:49;;;;;;;7.65;5.10;;;11.50;99.90;;;;;;5077610;28;20082;-75
2021/04/09 11:35:16;;;;;;;8.35;4.75;;;11.30;99.90;;;;;;5072187;28;20082;-75
2021/04/09 11:37:47;;;;;;;14.20;5.22;;;11.40;99.90;;;;;;5073886;28;20124;-75
2021/04/09 11:40:17;;;;;;;9.85;4.75;;;11.50;99.90;;;;;;5071148;28;20062;-75
2021/04/09 11:42:43;;;;;;;14.95;5.50;;;11.70;99.90;;;;;;5073839;28;20020;-75
2021/04/09 11:45:15;;;;;;;9.52;4.75;;;11.70;99.90;;;;;;5073531;28;20039;-74
2021/04/09 11:47:42;;;;;;;10.83;5.57;;;11.70;99.90;;;;;;5073880;28;20020;-73
2021/04/09 11:50:17;;;;;;;10.23;4.55;;;11.60;99.90;;;;;;5075569;28;20337;-75
2021/04/09 11:52:54;;;;;;;7.93;4.80;;;11.60;99.90;;;;;;5084355;28;20119;-75
2021/04/09 11:55:23;;;;;;;10.60;3.78;;;11.60;99.90;;;;;;5082346;28;20040;-75
2021/04/09 11:57:49;;;;;;;8.88;3.92;;;11.50;99.90;;;;;;5081155;28;20364;-74
2021/04/09 12:00:24;;;;;;;9.27;4.13;;;11.50;99.90;;;;;;5071718;28;20027;-77
2021/04/09 12:02:58;;;;;;;9.55;4.13;;;12.00;99.90;;;;;;5064577;28;20031;-71
2021/04/09 12:05:27;;;;;;;7.40;3.20;;;12.80;97.90;;;;;;5080339;28;20053;-76
2021/04/09 12:07:53;;;;;;;6.82;2.55;;;13.10;96.50;;;;;;5067634;28;20024;-76
2021/04/09 12:10:20;;;;;;;7.90;4.22;;;12.70;95.20;;;;;;5076826;28;20076;-73
2021/04/09 12:12:47;;;;;;;3.95;2.70;;;13.00;95.80;;;;;;5086406;28;20066;-75
2021/04/09 12:15:16;;;;;;;8.40;3.28;;;13.10;95.60;;;;;;5078077;28;20028;-76
2021/04/09 12:17:42;;;;;;;6.00;2.95;;;13.20;94.60;;;;;;5064074;28;20067;-74
2021/04/09 12:20:11;;;;;;;7.13;3.13;;;13.30;94.60;;;;;;5085768;28;20025;-77
2021/04/09 12:22:37;;;;;;;10.77;3.85;;;13.80;94.70;;;;;;5085931;28;20016;-78
2021/04/09 12:25:05;;;;;;;6.00;2.25;;;14.00;93.90;;;;;;5076401;28;20570;-75
2021/04/09 12:27:31;;;;;;;4.25;2.95;;;14.00;94.10;;;;;;5071330;28;20029;-76
2021/04/09 12:29:57;;;;;;;8.63;2.80;;;14.20;93.10;;;;;;5072774;28;20032;-76
2021/04/09 12:32:24;;;;;;;4.82;2.75;;;14.50;93.30;;;;;;5073334;28;20098;-76
2021/04/09 12:34:50;;;;;;;7.40;3.05;;;14.90;91.20;;;;;;5070126;28;20036;-75
2021/04/09 12:37:15;;;;;;;5.82;3.08;;;14.80;91.50;;;;;;5070811;28;20494;-75
2021/04/09 12:39:41;;;;;;;7.32;3.60;;;14.10;91.60;;;;;;5070014;28;20103;-74
2021/04/09 12:42:08;;;;;;;4.72;3.50;;;13.70;92.70;;;;;;5070819;28;20374;-76
2021/04/09 12:44:36;;;;;;;5.50;3.53;;;13.50;94.60;;;;;;5071662;28;20021;-74
2021/04/09 12:47:05;;;;;;;6.78;3.28;;;14.10;93.50;;;;;;5086564;28;20020;-75
2021/04/09 12:49:30;;;;;;;4.55;3.00;;;14.60;91.90;;;;;;5091874;28;20021;-76
2021/04/09 12:51:56;;;;;;;8.82;3.53;;;14.70;92.20;;;;;;5080988;28;20028;-75
2021/04/09 12:54:22;;;;;;;5.95;3.38;;;14.80;92.10;;;;;;5072769;28;20028;-77
2021/04/09 12:56:48;;;;;;;8.00;3.42;;;14.60;91.90;;;;;;5063592;28;20685;-76